createdAt,value
2022-08-01T00:00:52.979Z,99115.90
2022-08-01T00:03:54.770Z,99115.11
2022-08-01T00:06:56.505Z,99112.63
2022-08-01T00:09:58.287Z,99113.41
2022-08-01T00:13:00.120Z,99112.20
2022-08-01T00:16:02.335Z,99110.91
2022-08-01T00:19:04.717Z,99111.10
2022-08-01T00:22:07.286Z,99114.56
2022-08-01T00:25:09.815Z,99115.02
2022-08-01T00:28:11.578Z,99108.43
2022-08-01T00:31:13.404Z,99106.80
2022-08-01T00:34:15.259Z,99109.71
2022-08-01T00:37:17.007Z,99108.47
2022-08-01T00:40:18.712Z,99114.89
2022-08-01T00:43:20.675Z,99117.89
2022-08-01T00:46:22.519Z,99114.23
2022-08-01T00:49:24.395Z,99114.60
2022-08-01T00:52:26.259Z,99112.10
2022-08-01T00:55:30.022Z,99112.77
2022-08-01T00:58:33.398Z,99111.81
2022-08-01T01:01:39.423Z,99114.45
2022-08-01T01:04:41.805Z,99115.23
2022-08-01T01:08:06.118Z,99118.60
2022-08-01T01:11:32.711Z,99121.04
2022-08-01T01:14:49.765Z,99116.95
2022-08-01T01:17:59.408Z,99115.52
2022-08-01T01:21:08.040Z,99113.81
2022-08-01T01:24:13.576Z,99114.67
2022-08-01T01:27:21.507Z,99114.96
2022-08-01T01:30:25.427Z,99117.08
2022-08-01T01:33:32.960Z,99114.98
2022-08-01T01:36:35.103Z,99113.92
2022-08-01T01:39:37.604Z,99116.66
2022-08-01T01:42:40.018Z,99115.55
2022-08-01T01:45:42.548Z,99118.52
2022-08-01T01:48:46.204Z,99115.33
2022-08-01T01:51:53.278Z,99118.11
2022-08-01T01:55:07.748Z,99121.59
2022-08-01T01:58:13.045Z,99119.48
2022-08-01T02:01:15.932Z,99119.91
2022-08-01T02:04:41.255Z,99123.75
2022-08-01T02:07:43.828Z,99122.83
2022-08-01T02:11:05.971Z,99121.13
2022-08-01T02:14:09.358Z,99123.88
2022-08-01T02:17:13.208Z,99123.77
2022-08-01T02:20:15.153Z,99122.14
2022-08-01T02:23:17.166Z,99123.79
2022-08-01T02:26:19.474Z,99119.30
2022-08-01T02:29:25.644Z,99120.80
2022-08-01T02:32:32.633Z,99120.84
2022-08-01T02:36:29.681Z,99116.84
2022-08-01T02:39:02.115Z,99119.43
2022-08-01T02:42:06.819Z,99121.63
2022-08-01T02:45:10.439Z,99119.99
2022-08-01T02:48:16.789Z,99117.72
2022-08-01T02:51:18.963Z,99123.73
2022-08-01T02:54:22.626Z,99126.00
2022-08-01T02:57:25.583Z,99128.58
2022-08-01T03:00:36.649Z,99132.06
2022-08-01T03:03:39.279Z,99135.23
2022-08-01T03:06:42.670Z,99136.70
2022-08-01T03:09:47.587Z,99133.30
2022-08-01T03:12:51.117Z,99133.77
2022-08-01T03:15:54.158Z,99131.37
2022-08-01T03:18:57.936Z,99128.38
2022-08-01T03:22:00.865Z,99128.61
2022-08-01T03:25:02.978Z,99133.92
2022-08-01T03:28:06.037Z,99138.15
2022-08-01T03:31:07.720Z,99138.94
2022-08-01T03:34:09.871Z,99140.96
2022-08-01T03:38:14.315Z,99140.62
2022-08-01T03:41:14.726Z,99144.80
2022-08-01T03:44:19.257Z,99147.39
2022-08-01T03:47:23.185Z,99151.11
2022-08-01T03:50:26.121Z,99151.64
2022-08-01T03:53:31.769Z,99157.53
2022-08-01T03:56:34.251Z,99160.34
2022-08-01T03:59:37.616Z,99164.94
2022-08-01T04:02:39.642Z,99169.29
2022-08-01T04:05:43.560Z,99171.64
2022-08-01T04:08:56.547Z,99178.17
2022-08-01T04:12:01.795Z,99174.39
2022-08-01T04:15:15.083Z,99179.17
2022-08-01T04:18:16.846Z,99180.39
2022-08-01T04:21:30.065Z,99184.14
2022-08-01T04:24:33.754Z,99189.38
2022-08-01T04:27:49.829Z,99188.49
2022-08-01T04:30:59.731Z,99186.77
2022-08-01T04:34:06.006Z,99187.96
2022-08-01T04:37:11.237Z,99188.14
2022-08-01T04:40:15.693Z,99188.09
2022-08-01T04:43:17.831Z,99188.69
2022-08-01T04:46:20.060Z,99188.38
2022-08-01T04:49:25.611Z,99189.80
2022-08-01T04:52:35.392Z,99191.03
2022-08-01T04:55:37.128Z,99195.96
2022-08-01T04:58:39.031Z,99193.45
2022-08-01T05:01:40.837Z,99193.65
2022-08-01T05:04:44.093Z,99191.68
2022-08-01T05:07:45.891Z,99187.08
2022-08-01T05:10:47.719Z,99191.16
2022-08-01T05:13:49.827Z,99200.58
2022-08-01T05:16:52.549Z,99202.95
2022-08-01T05:19:54.899Z,99203.52
2022-08-01T05:22:56.561Z,99201.84
2022-08-01T05:25:59.557Z,99201.36
2022-08-01T05:29:01.507Z,99200.41
2022-08-01T05:32:04.049Z,99201.09
2022-08-01T05:35:06.710Z,99206.41
2022-08-01T05:38:08.487Z,99199.84
2022-08-01T05:41:15.999Z,99198.92
2022-08-01T05:44:17.832Z,99196.38
2022-08-01T05:47:20.043Z,99201.80
2022-08-01T05:50:21.849Z,99200.96
2022-08-01T05:53:23.589Z,99197.27
2022-08-01T05:56:29.338Z,99197.37
2022-08-01T05:59:33.957Z,99201.35
2022-08-01T06:02:35.745Z,99205.00
2022-08-01T06:05:38.093Z,99205.05
2022-08-01T06:08:39.725Z,99212.82
2022-08-01T06:11:41.599Z,99213.79
2022-08-01T06:14:43.330Z,99211.77
2022-08-01T06:17:45.004Z,99210.14
2022-08-01T06:20:48.583Z,99211.61
2022-08-01T06:23:50.499Z,99212.89
2022-08-01T06:26:52.336Z,99213.45
2022-08-01T06:29:58.160Z,99211.98
2022-08-01T06:33:01.194Z,99212.68
2022-08-01T06:36:03.251Z,99209.34
2022-08-01T06:39:05.059Z,99212.52
2022-08-01T06:42:07.361Z,99219.21
2022-08-01T06:45:11.162Z,99220.39
2022-08-01T06:48:13.552Z,99218.76
2022-08-01T06:51:18.688Z,99219.27
2022-08-01T06:54:20.867Z,99220.09
2022-08-01T06:57:22.677Z,99219.75
2022-08-01T07:00:26.584Z,99216.15
2022-08-01T07:03:53.642Z,99218.20
2022-08-01T07:06:50.295Z,99219.20
2022-08-01T07:09:52.077Z,99220.41
2022-08-01T07:12:55.040Z,99214.84
2022-08-01T07:15:56.819Z,99215.86
2022-08-01T07:18:58.639Z,99217.98
2022-08-01T07:22:00.426Z,99220.40
2022-08-01T07:25:02.654Z,99221.27
2022-08-01T07:28:05.017Z,99227.63
2022-08-01T07:31:06.931Z,99226.70
2022-08-01T07:34:09.050Z,99223.39
2022-08-01T07:37:10.758Z,99218.71
2022-08-01T07:40:12.826Z,99216.70
2022-08-01T07:43:14.811Z,99219.40
2022-08-01T07:46:17.937Z,99220.44
2022-08-01T07:49:19.995Z,99220.52
2022-08-01T07:52:21.847Z,99227.94
2022-08-01T07:55:23.634Z,99222.38
2022-08-01T07:58:25.305Z,99221.66
2022-08-01T08:01:27.922Z,99213.99
2022-08-01T08:04:30.038Z,99212.24
2022-08-01T08:07:31.830Z,99214.52
2022-08-01T08:10:34.705Z,99208.36
2022-08-01T08:13:36.579Z,99209.61
2022-08-01T08:16:39.515Z,99211.52
2022-08-01T08:19:42.056Z,99210.67
2022-08-01T08:22:44.336Z,99212.39
2022-08-01T08:25:46.206Z,99211.88
2022-08-01T08:28:47.989Z,99214.89
2022-08-01T08:31:52.165Z,99215.80
2022-08-01T08:34:54.778Z,99214.28
2022-08-01T08:37:58.210Z,99217.08
2022-08-01T08:41:00.649Z,99215.79
2022-08-01T08:44:04.563Z,99218.82
2022-08-01T08:47:06.647Z,99221.02
2022-08-01T08:50:11.376Z,99222.01
2022-08-01T08:53:18.974Z,99226.39
2022-08-01T08:56:21.775Z,99223.37
2022-08-01T08:59:25.941Z,99221.99
2022-08-01T09:02:31.253Z,99219.14
2022-08-01T09:05:39.311Z,99215.61
2022-08-01T09:08:41.949Z,99219.67
2022-08-01T09:12:03.702Z,99218.33
2022-08-01T09:15:46.719Z,99221.48
2022-08-01T09:19:15.979Z,99219.77
2022-08-01T09:22:53.250Z,99217.98
2022-08-01T09:26:11.459Z,99218.14
2022-08-01T09:29:37.711Z,99212.59
2022-08-01T09:33:06.405Z,99217.34
2022-08-01T09:36:56.809Z,99216.48
2022-08-01T09:39:59.171Z,99218.42
2022-08-01T09:43:15.028Z,99220.95
2022-08-01T09:46:20.511Z,99222.04
2022-08-01T09:49:50.652Z,99221.99
2022-08-01T09:52:58.204Z,99221.38
2022-08-01T09:56:13.843Z,99220.60
2022-08-01T09:59:57.063Z,99223.99
2022-08-01T10:03:21.825Z,99223.95
2022-08-01T10:06:44.064Z,99222.23
2022-08-01T10:09:47.339Z,99220.80
2022-08-01T10:12:52.763Z,99214.93
2022-08-01T10:15:54.991Z,99213.94
2022-08-01T10:19:01.739Z,99214.34
2022-08-01T10:22:09.528Z,99216.46
2022-08-01T10:25:42.707Z,99211.87
2022-08-01T10:28:50.091Z,99211.61
2022-08-01T10:32:10.296Z,99211.05
2022-08-01T10:35:47.541Z,99207.69
2022-08-01T10:38:52.071Z,99206.75
2022-08-01T10:41:55.797Z,99210.43
2022-08-01T10:44:58.590Z,99210.04
2022-08-01T10:48:31.405Z,99208.66
2022-08-01T10:51:54.884Z,99204.39
2022-08-01T10:55:11.610Z,99201.77
2022-08-01T10:58:15.949Z,99200.31
2022-08-01T11:01:33.995Z,99204.17
2022-08-01T11:04:55.641Z,99206.81
2022-08-01T11:07:59.519Z,99204.98
2022-08-01T11:11:02.765Z,99199.85
2022-08-01T11:14:15.119Z,99196.69
2022-08-01T11:17:42.803Z,99197.17
2022-08-01T11:21:58.028Z,99195.13
2022-08-01T11:24:50.589Z,99197.63
2022-08-01T11:28:15.670Z,99199.30
2022-08-01T11:31:17.362Z,99201.48
2022-08-01T11:34:19.730Z,99200.66
2022-08-01T11:37:30.626Z,99200.66
2022-08-01T11:40:32.847Z,99197.71
2022-08-01T11:43:34.948Z,99197.55
2022-08-01T11:46:51.941Z,99195.86
2022-08-01T11:49:57.206Z,99191.98
2022-08-01T11:53:01.088Z,99189.09
2022-08-01T11:56:02.893Z,99190.05
2022-08-01T11:59:04.795Z,99189.09
2022-08-01T12:02:30.186Z,99196.01
2022-08-01T12:05:37.738Z,99192.52
2022-08-01T12:08:45.678Z,99188.17
2022-08-01T12:11:48.596Z,99186.43
2022-08-01T12:15:10.581Z,99187.67
2022-08-01T12:18:12.570Z,99179.81
2022-08-01T12:21:14.598Z,99185.83
2022-08-01T12:24:23.151Z,99185.91
2022-08-01T12:27:29.454Z,99183.11
2022-08-01T12:30:32.192Z,99183.95
2022-08-01T12:33:35.264Z,99182.45
2022-08-01T12:36:37.372Z,99181.02
2022-08-01T12:39:40.237Z,99177.10
2022-08-01T12:42:44.805Z,99174.61
2022-08-01T12:45:54.290Z,99174.38
2022-08-01T12:48:59.085Z,99171.45
2022-08-01T12:52:01.504Z,99172.23
2022-08-01T12:55:12.728Z,99166.63
2022-08-01T12:58:16.444Z,99166.55
2022-08-01T13:01:27.008Z,99165.82
2022-08-01T13:04:28.778Z,99169.13
2022-08-01T13:07:45.715Z,99167.45
2022-08-01T13:10:48.842Z,99162.73
2022-08-01T13:13:52.169Z,99159.83
2022-08-01T13:16:57.291Z,99163.03
2022-08-01T13:19:59.573Z,99155.41
2022-08-01T13:23:15.249Z,99157.54
2022-08-01T13:26:39.102Z,99152.52
2022-08-01T13:29:42.630Z,99152.52
2022-08-01T13:32:58.219Z,99152.55
2022-08-01T13:36:00.259Z,99150.05
2022-08-01T13:39:21.523Z,99147.87
2022-08-01T13:42:23.851Z,99145.15
2022-08-01T13:45:26.632Z,99140.02
2022-08-01T13:48:28.569Z,99137.58
2022-08-01T13:51:31.708Z,99144.61
2022-08-01T13:54:33.836Z,99148.45
2022-08-01T13:57:36.606Z,99146.95
2022-08-01T14:00:39.099Z,99150.80
2022-08-01T14:03:40.907Z,99155.86
2022-08-01T14:06:42.725Z,99158.49
2022-08-01T14:10:05.018Z,99155.85
2022-08-01T14:13:06.704Z,99158.58
2022-08-01T14:16:13.696Z,99162.55
2022-08-01T14:19:19.366Z,99170.55
2022-08-01T14:22:40.282Z,99164.34
2022-08-01T14:26:03.728Z,99161.98
2022-08-01T14:29:04.151Z,99164.76
2022-08-01T14:32:06.101Z,99169.85
2022-08-01T14:35:08.572Z,99171.08
2022-08-01T14:38:10.574Z,99175.98
2022-08-01T14:41:13.182Z,99176.98
2022-08-01T14:44:14.936Z,99178.45
2022-08-01T14:47:22.140Z,99179.10
2022-08-01T14:50:27.837Z,99185.20
2022-08-01T14:53:30.129Z,99186.02
2022-08-01T14:56:31.989Z,99187.61
2022-08-01T14:59:33.902Z,99189.79
2022-08-01T15:02:35.667Z,99192.23
2022-08-01T15:05:37.410Z,99191.30
2022-08-01T15:08:39.286Z,99195.80
2022-08-01T15:11:41.051Z,99197.60
2022-08-01T15:14:51.618Z,99196.88
2022-08-01T15:17:54.488Z,99198.98
2022-08-01T15:20:56.998Z,99195.17
2022-08-01T15:23:58.697Z,99195.30
2022-08-01T15:27:00.487Z,99198.15
2022-08-01T15:30:02.547Z,99195.52
2022-08-01T15:33:04.398Z,99195.63
2022-08-01T15:36:06.301Z,99196.00
2022-08-01T15:39:14.034Z,99197.66
2022-08-01T15:42:20.065Z,99195.66
2022-08-01T15:48:49.491Z,99197.54
2022-08-01T15:51:51.689Z,99197.38
2022-08-01T15:54:53.462Z,99198.04
2022-08-01T15:57:56.160Z,99194.91
2022-08-01T16:00:57.954Z,99195.38
2022-08-01T16:04:00.114Z,99198.55
2022-08-01T16:07:02.172Z,99196.65
2022-08-01T16:10:04.948Z,99195.41
2022-08-01T16:13:06.871Z,99196.71
2022-08-01T16:16:09.778Z,99197.55
2022-08-01T16:19:11.538Z,99192.98
2022-08-01T16:22:21.378Z,99194.95
2022-08-01T16:25:23.156Z,99196.66
2022-08-01T16:28:25.172Z,99195.71
2022-08-01T16:31:42.613Z,99193.15
2022-08-01T16:34:48.942Z,99196.44
2022-08-01T16:37:50.662Z,99199.20
2022-08-01T16:40:55.545Z,99198.49
2022-08-01T16:43:59.479Z,99195.52
2022-08-01T16:47:03.531Z,99194.80
2022-08-01T16:50:06.159Z,99193.52
2022-08-01T16:53:07.861Z,99190.05
2022-08-01T16:56:09.757Z,99185.71
2022-08-01T16:59:11.806Z,99185.63
2022-08-01T17:02:13.537Z,99192.20
2022-08-01T17:05:15.476Z,99194.60
2022-08-01T17:08:17.383Z,99194.65
2022-08-01T17:11:19.192Z,99197.05
2022-08-01T17:14:20.882Z,99198.23
2022-08-01T17:17:22.930Z,99201.42
2022-08-01T17:20:24.941Z,99201.70
2022-08-01T17:23:26.944Z,99213.95
2022-08-01T17:26:28.842Z,99213.36
2022-08-01T17:29:40.780Z,99216.07
2022-08-01T17:32:46.261Z,99215.52
2022-08-01T17:35:48.137Z,99218.70
2022-08-01T17:38:50.282Z,99218.83
2022-08-01T17:41:52.134Z,99217.92
2022-08-01T17:44:54.306Z,99215.31
2022-08-01T17:47:59.155Z,99219.69
2022-08-01T17:51:00.938Z,99221.44
2022-08-01T17:54:02.670Z,99221.74
2022-08-01T17:57:05.217Z,99219.66
2022-08-01T18:00:10.789Z,99220.92
2022-08-01T18:03:13.190Z,99217.90
2022-08-01T18:06:23.180Z,99216.25
2022-08-01T18:09:25.586Z,99219.38
2022-08-01T18:12:27.866Z,99223.64
2022-08-01T18:15:30.249Z,99229.39
2022-08-01T18:18:35.264Z,99229.41
2022-08-01T18:21:41.050Z,99233.20
2022-08-01T18:24:44.708Z,99237.38
2022-08-01T18:28:19.683Z,99241.71
2022-08-01T18:31:11.806Z,99246.02
2022-08-01T18:34:13.923Z,99248.72
2022-08-01T18:37:16.854Z,99253.02
2022-08-01T18:40:23.123Z,99256.99
2022-08-01T18:43:25.124Z,99261.99
2022-08-01T18:46:27.262Z,99268.82
2022-08-01T18:49:29.421Z,99271.05
2022-08-01T18:52:32.291Z,99278.77
2022-08-01T18:55:34.244Z,99279.21
2022-08-01T18:58:36.365Z,99278.38
2022-08-01T19:01:39.782Z,99286.06
2022-08-01T19:04:41.831Z,99286.18
2022-08-01T19:08:05.093Z,99292.02
2022-08-01T19:11:06.736Z,99294.47
2022-08-01T19:14:08.637Z,99299.73
2022-08-01T19:17:10.405Z,99302.55
2022-08-01T19:20:12.244Z,99305.38
2022-08-01T19:23:32.486Z,99306.56
2022-08-01T19:26:34.991Z,99308.63
2022-08-01T19:29:38.567Z,99311.24
2022-08-01T19:32:42.758Z,99306.11
2022-08-01T19:35:44.924Z,99305.05
2022-08-01T19:38:47.398Z,99300.05
2022-08-01T19:41:51.489Z,99303.27
2022-08-01T19:44:53.235Z,99297.22
2022-08-01T19:47:57.244Z,99304.41
2022-08-01T19:51:01.771Z,99306.17
2022-08-01T19:54:05.399Z,99310.00
2022-08-01T19:57:08.321Z,99312.59
2022-08-01T20:00:13.000Z,99312.73
2022-08-01T20:03:32.640Z,99318.41
2022-08-01T20:06:35.494Z,99315.05
2022-08-01T20:09:39.624Z,99320.02
2022-08-01T20:12:41.721Z,99319.31
2022-08-01T20:15:44.948Z,99316.48
2022-08-01T20:18:46.858Z,99312.20
2022-08-01T20:22:03.960Z,99313.20
2022-08-01T20:25:07.146Z,99321.05
2022-08-01T20:28:10.965Z,99327.95
2022-08-01T20:31:14.093Z,99328.22
2022-08-01T20:34:25.556Z,99326.50
2022-08-01T20:38:06.399Z,99326.23
2022-08-01T20:40:52.007Z,99329.55
2022-08-01T20:43:55.515Z,99331.94
2022-08-01T20:46:57.382Z,99332.34
2022-08-01T20:50:27.056Z,99330.48
2022-08-01T20:53:49.214Z,99330.61
2022-08-01T20:57:05.070Z,99333.28
2022-08-01T21:00:08.195Z,99334.02
2022-08-01T21:03:20.303Z,99337.20
2022-08-01T21:06:27.796Z,99332.41
2022-08-01T21:09:36.998Z,99335.84
2022-08-01T21:12:50.720Z,99336.27
2022-08-01T21:16:22.185Z,99336.13
2022-08-01T21:19:26.360Z,99343.40
2022-08-01T21:22:53.000Z,99340.44
2022-08-01T21:26:00.106Z,99348.94
2022-08-01T21:29:06.768Z,99349.08
2022-08-01T21:32:12.471Z,99350.14
2022-08-01T21:35:16.681Z,99346.48
2022-08-01T21:38:21.106Z,99348.34
2022-08-01T21:41:56.031Z,99352.98
2022-08-01T21:44:47.496Z,99350.48
2022-08-01T21:47:51.439Z,99352.74
2022-08-01T21:50:59.998Z,99355.42
2022-08-01T21:54:34.650Z,99357.18
2022-08-01T21:58:01.089Z,99354.39
2022-08-01T22:01:15.905Z,99359.61
2022-08-01T22:04:19.487Z,99361.97
2022-08-01T22:07:22.606Z,99368.73
2022-08-01T22:10:25.979Z,99363.77
2022-08-01T22:13:27.987Z,99361.94
2022-08-01T22:16:31.787Z,99361.72
2022-08-01T22:19:45.057Z,99364.86
2022-08-01T22:22:52.529Z,99368.33
2022-08-01T22:25:55.809Z,99369.08
2022-08-01T22:29:01.420Z,99368.98
2022-08-01T22:32:03.657Z,99368.75
2022-08-01T22:35:12.330Z,99369.48
2022-08-01T22:38:17.675Z,99367.63
2022-08-01T22:41:22.333Z,99371.98
2022-08-01T22:44:38.905Z,99370.05
2022-08-01T22:47:50.995Z,99368.13
2022-08-01T22:51:07.223Z,99367.55
2022-08-01T22:54:13.181Z,99367.60
2022-08-01T22:57:20.795Z,99365.95
2022-08-01T23:00:23.020Z,99365.88
2022-08-01T23:03:29.551Z,99363.40
2022-08-01T23:06:39.642Z,99366.20
2022-08-01T23:09:53.702Z,99360.73
2022-08-01T23:12:56.906Z,99360.70
2022-08-01T23:16:00.326Z,99356.89
2022-08-01T23:19:02.739Z,99356.39
2022-08-01T23:22:04.948Z,99357.98
2022-08-01T23:25:09.357Z,99361.27
2022-08-01T23:28:12.827Z,99359.88
2022-08-01T23:31:14.769Z,99354.07
2022-08-01T23:34:19.717Z,99354.11
2022-08-01T23:37:22.187Z,99354.14
2022-08-01T23:40:25.194Z,99359.42
2022-08-01T23:43:27.568Z,99356.77
2022-08-01T23:46:29.671Z,99357.77
2022-08-01T23:49:31.649Z,99352.41
2022-08-01T23:52:34.166Z,99350.02
2022-08-01T23:55:37.973Z,99350.70
2022-08-01T23:58:40.418Z,99355.06
